createdAt,value
2019-04-28T00:01:51.743Z,95.94
2019-04-28T00:04:22.028Z,96.09
2019-04-28T00:06:53.312Z,96.73
2019-04-28T00:09:24.191Z,97.26
2019-04-28T00:11:54.528Z,96.89
2019-04-28T00:14:24.808Z,96.85
2019-04-28T00:16:55.856Z,96.79
2019-04-28T00:19:27.570Z,97.07
2019-04-28T00:22:12.874Z,97.76
2019-04-28T00:24:52.244Z,97.53
2019-04-28T00:27:24.230Z,97.04
2019-04-28T00:29:54.684Z,95.85
2019-04-28T00:32:25.043Z,96.07
2019-04-28T00:34:55.513Z,95.61
2019-04-28T00:37:37.235Z,94.73
2019-04-28T00:40:11.144Z,95.27
2019-04-28T00:42:41.561Z,95.20
2019-04-28T00:45:12.821Z,96.06
2019-04-28T00:47:43.240Z,94.96
2019-04-28T00:50:14.093Z,95.60
2019-04-28T00:52:44.618Z,94.88
2019-04-28T00:55:15.283Z,94.79
2019-04-28T00:57:45.563Z,93.42
2019-04-28T01:00:18.327Z,92.58
2019-04-28T01:02:48.785Z,91.26
2019-04-28T01:05:21.409Z,90.85
2019-04-28T01:07:52.054Z,90.30
2019-04-28T01:10:23.228Z,89.76
2019-04-28T01:12:53.637Z,89.57
2019-04-28T01:15:42.924Z,89.10
2019-04-28T01:18:20.125Z,87.23
2019-04-28T01:20:51.840Z,88.13
2019-04-28T01:23:22.494Z,87.93
2019-04-28T01:25:52.777Z,86.48
2019-04-28T01:28:23.105Z,87.25
2019-04-28T01:31:19.352Z,87.00
2019-04-28T01:34:10.342Z,86.10
2019-04-28T01:36:40.934Z,85.36
2019-04-28T01:39:11.529Z,85.54
2019-04-28T01:41:42.015Z,84.07
2019-04-28T01:44:12.323Z,84.53
2019-04-28T01:46:42.921Z,84.35
2019-04-28T01:49:13.497Z,84.56
2019-04-28T01:51:43.773Z,84.54
2019-04-28T01:54:14.451Z,84.58
2019-04-28T01:56:45.246Z,84.65
2019-04-28T01:59:15.550Z,85.12
2019-04-28T02:01:46.088Z,85.33
2019-04-28T02:04:16.879Z,85.60
2019-04-28T02:06:47.160Z,86.31
2019-04-28T02:09:19.519Z,87.74
2019-04-28T02:11:49.887Z,87.57
2019-04-28T02:14:20.585Z,87.79
2019-04-28T02:16:51.018Z,87.63
2019-04-28T02:19:21.296Z,87.11
2019-04-28T02:22:03.024Z,86.37
2019-04-28T02:24:35.134Z,85.78
2019-04-28T02:27:06.047Z,85.19
2019-04-28T02:29:36.312Z,85.76
2019-04-28T02:32:10.355Z,85.83
2019-04-28T02:34:41.392Z,85.43
2019-04-28T02:37:11.860Z,83.40
2019-04-28T02:39:42.375Z,84.01
2019-04-28T02:42:12.743Z,84.21
2019-04-28T02:44:43.122Z,82.57
2019-04-28T02:47:13.427Z,82.28
2019-04-28T02:50:00.858Z,81.52
2019-04-28T02:52:48.111Z,80.34
2019-04-28T02:55:21.175Z,79.00
2019-04-28T02:57:51.672Z,80.84
2019-04-28T03:00:23.979Z,79.33
2019-04-28T03:02:54.683Z,78.51
2019-04-28T03:05:25.022Z,78.93
2019-04-28T03:07:56.817Z,78.50
2019-04-28T03:10:27.481Z,78.31
2019-04-28T03:13:00.795Z,78.42
2019-04-28T03:15:30.367Z,78.34
2019-04-28T03:18:01.858Z,78.18
2019-04-28T03:20:32.677Z,78.45
2019-04-28T03:23:03.401Z,78.39
2019-04-28T03:25:41.006Z,77.97
2019-04-28T03:28:36.951Z,78.61
2019-04-28T03:31:51.006Z,79.39
2019-04-28T03:33:58.070Z,79.90
2019-04-28T03:36:33.122Z,79.58
2019-04-28T03:39:02.386Z,79.95
2019-04-28T03:41:34.277Z,80.60
2019-04-28T03:44:05.084Z,80.89
2019-04-28T03:46:41.345Z,80.86
2019-04-28T03:49:12.804Z,81.14
2019-04-28T03:51:43.128Z,81.12
2019-04-28T03:54:13.752Z,81.03
2019-04-28T03:56:45.270Z,80.59
2019-04-28T03:59:16.928Z,80.93
2019-04-28T04:01:56.675Z,80.46
2019-04-28T04:04:21.322Z,80.52
2019-04-28T04:06:51.704Z,80.84
2019-04-28T04:09:24.252Z,79.74
2019-04-28T04:12:11.795Z,79.96
2019-04-28T04:14:47.383Z,80.41
2019-04-28T04:17:22.651Z,79.96
2019-04-28T04:19:52.932Z,79.21
2019-04-28T04:22:23.485Z,79.06
2019-04-28T04:24:53.950Z,78.75
2019-04-28T04:27:24.275Z,78.52
2019-04-28T04:29:54.936Z,77.68
2019-04-28T04:32:27.103Z,78.01
2019-04-28T04:35:00.514Z,77.95
2019-04-28T04:37:30.806Z,78.28
2019-04-28T04:40:01.894Z,76.79
2019-04-28T04:42:32.261Z,77.85
2019-04-28T04:45:02.598Z,76.62
2019-04-28T04:47:33.160Z,77.47
2019-04-28T04:50:03.443Z,76.76
2019-04-28T04:52:34.134Z,76.23
2019-04-28T04:55:04.396Z,76.14
2019-04-28T04:57:35.071Z,76.55
2019-04-28T05:00:10.012Z,75.54
2019-04-28T05:02:52.904Z,76.27
2019-04-28T05:05:30.330Z,75.97
2019-04-28T05:08:00.994Z,76.61
2019-04-28T05:10:31.272Z,75.99
2019-04-28T05:13:01.616Z,76.08
2019-04-28T05:15:32.223Z,75.35
2019-04-28T05:18:02.539Z,76.69
2019-04-28T05:20:32.809Z,76.04
2019-04-28T05:23:13.009Z,76.34
2019-04-28T05:25:43.930Z,77.02
2019-04-28T05:28:14.735Z,76.13
2019-04-28T05:30:45.011Z,75.85
2019-04-28T05:33:30.687Z,76.79
2019-04-28T05:36:02.970Z,75.47
2019-04-28T05:38:31.294Z,77.18
2019-04-28T05:41:02.769Z,76.30
2019-04-28T05:43:34.404Z,75.91
2019-04-28T05:46:04.810Z,76.14
2019-04-28T05:48:40.889Z,75.19
2019-04-28T05:51:14.190Z,76.23
2019-04-28T05:53:51.294Z,75.78
2019-04-28T05:56:50.329Z,75.65
2019-04-28T05:59:40.307Z,75.55
2019-04-28T06:02:15.698Z,76.23
2019-04-28T06:04:46.391Z,76.16
2019-04-28T06:07:23.891Z,75.29
2019-04-28T06:09:54.933Z,75.86
2019-04-28T06:12:25.438Z,76.13
2019-04-28T06:14:56.082Z,75.46
2019-04-28T06:17:29.527Z,75.63
2019-04-28T06:20:00.293Z,75.56
2019-04-28T06:22:30.677Z,75.33
2019-04-28T06:25:00.953Z,75.20
2019-04-28T06:27:32.748Z,74.87
2019-04-28T06:30:03.505Z,73.24
2019-04-28T06:32:34.101Z,72.34
2019-04-28T06:35:04.780Z,71.82
2019-04-28T06:37:35.062Z,71.43
2019-04-28T06:40:05.968Z,72.56
2019-04-28T06:42:36.353Z,70.96
2019-04-28T06:45:06.803Z,70.93
2019-04-28T06:47:37.136Z,72.22
2019-04-28T06:50:08.248Z,70.91
2019-04-28T06:52:38.551Z,68.48
2019-04-28T06:55:08.883Z,69.15
2019-04-28T06:57:39.390Z,69.91
2019-04-28T07:00:09.792Z,69.03
2019-04-28T07:02:40.440Z,68.13
2019-04-28T07:05:10.762Z,66.28
2019-04-28T07:07:41.196Z,68.01
2019-04-28T07:10:11.911Z,67.53
2019-04-28T07:12:42.231Z,67.37
2019-04-28T07:15:12.764Z,66.97
2019-04-28T07:17:43.424Z,65.49
2019-04-28T07:20:39.161Z,66.16
2019-04-28T07:23:10.412Z,66.80
2019-04-28T07:25:40.965Z,66.37
2019-04-28T07:28:11.512Z,65.61
2019-04-28T07:30:41.863Z,67.11
2019-04-28T07:33:12.424Z,65.48
2019-04-28T07:35:42.732Z,65.75
2019-04-28T07:38:13.357Z,66.14
2019-04-28T07:40:43.691Z,63.66
2019-04-28T07:43:13.980Z,62.57
2019-04-28T07:45:44.362Z,63.34
2019-04-28T07:48:14.852Z,62.24
2019-04-28T07:50:45.145Z,62.83
2019-04-28T07:53:21.047Z,60.72
2019-04-28T07:55:51.668Z,60.33
2019-04-28T07:58:22.003Z,60.79
2019-04-28T08:00:53.874Z,60.01
2019-04-28T08:03:24.597Z,61.02
2019-04-28T08:05:54.988Z,61.06
2019-04-28T08:08:25.349Z,60.37
2019-04-28T08:10:55.919Z,59.63
2019-04-28T08:13:26.180Z,60.94
2019-04-28T08:15:56.455Z,60.43
2019-04-28T08:18:27.152Z,60.27
2019-04-28T08:20:57.640Z,57.61
2019-04-28T08:23:27.927Z,58.26
2019-04-28T08:25:58.577Z,57.73
2019-04-28T08:28:28.925Z,56.74
2019-04-28T08:30:59.243Z,56.06
2019-04-28T08:34:01.709Z,53.47
2019-04-28T08:36:24.052Z,53.90
2019-04-28T08:38:54.504Z,54.82
2019-04-28T08:41:24.849Z,51.95
2019-04-28T08:43:55.132Z,52.21
2019-04-28T08:46:25.832Z,53.16
2019-04-28T08:48:56.316Z,54.38
2019-04-28T08:51:26.639Z,53.91
2019-04-28T08:53:57.217Z,52.70
2019-04-28T08:56:28.894Z,54.17
2019-04-28T08:58:59.172Z,51.55
2019-04-28T09:01:29.862Z,50.70
2019-04-28T09:04:00.558Z,53.12
2019-04-28T09:06:30.912Z,51.00
2019-04-28T09:09:01.363Z,49.77
2019-04-28T09:11:33.052Z,50.60
2019-04-28T09:14:03.814Z,49.63
2019-04-28T09:16:34.595Z,50.39
2019-04-28T09:19:08.594Z,52.94
2019-04-28T09:21:41.108Z,49.73
2019-04-28T09:24:11.842Z,50.64
2019-04-28T09:26:42.158Z,50.76
2019-04-28T09:29:12.622Z,50.45
2019-04-28T09:31:43.050Z,51.77
2019-04-28T09:34:13.324Z,52.36
2019-04-28T09:36:44.634Z,49.14
2019-04-28T09:39:16.903Z,50.95
2019-04-28T09:42:06.222Z,48.38
2019-04-28T09:44:36.596Z,49.88
2019-04-28T09:47:06.914Z,50.21
2019-04-28T09:49:37.350Z,51.39
2019-04-28T09:52:08.012Z,50.20
2019-04-28T09:54:38.309Z,50.27
2019-04-28T09:57:08.600Z,49.04
2019-04-28T09:59:39.250Z,49.92
2019-04-28T10:02:09.685Z,49.38
2019-04-28T10:04:41.720Z,50.01
2019-04-28T10:07:12.432Z,49.96
2019-04-28T10:09:42.951Z,48.74
2019-04-28T10:12:26.326Z,48.14
2019-04-28T10:14:45.611Z,48.21
2019-04-28T10:17:15.947Z,46.82
2019-04-28T10:19:46.325Z,46.72
2019-04-28T10:22:16.657Z,47.51
2019-04-28T10:24:46.939Z,46.82
2019-04-28T10:27:17.582Z,47.25
2019-04-28T10:29:48.165Z,46.95
2019-04-28T10:32:18.468Z,48.13
2019-04-28T10:34:55.003Z,48.06
2019-04-28T10:37:22.624Z,46.67
2019-04-28T10:39:57.302Z,47.87
2019-04-28T10:42:27.686Z,47.83
2019-04-28T10:44:58.726Z,46.96
2019-04-28T10:47:29.632Z,46.42
2019-04-28T10:50:00.137Z,46.23
2019-04-28T10:52:30.418Z,45.99
2019-04-28T10:55:01.104Z,45.46
2019-04-28T10:57:31.871Z,45.48
2019-04-28T11:00:02.247Z,47.14
2019-04-28T11:02:34.628Z,45.88
2019-04-28T11:05:13.400Z,43.96
2019-04-28T11:07:43.722Z,44.56
2019-04-28T11:10:16.674Z,45.64
2019-04-28T11:12:49.554Z,44.93
2019-04-28T11:15:23.987Z,43.31
2019-04-28T11:17:54.531Z,42.77
2019-04-28T11:20:25.323Z,42.74
2019-04-28T11:22:55.731Z,43.69
2019-04-28T11:25:26.134Z,43.79
2019-04-28T11:27:56.429Z,44.37
2019-04-28T11:30:28.683Z,43.63
2019-04-28T11:33:18.522Z,44.20
2019-04-28T11:35:48.846Z,42.69
2019-04-28T11:38:19.301Z,42.32
2019-04-28T11:40:49.950Z,42.22
2019-04-28T11:43:20.346Z,42.36
2019-04-28T11:45:51.790Z,42.79
2019-04-28T11:48:22.432Z,42.93
2019-04-28T11:50:52.725Z,41.04
2019-04-28T11:53:23.382Z,41.45
2019-04-28T11:55:53.695Z,40.42
2019-04-28T11:58:24.045Z,39.54
2019-04-28T12:00:54.563Z,40.76
2019-04-28T12:03:24.954Z,40.75
2019-04-28T12:05:55.292Z,40.34
2019-04-28T12:08:25.900Z,41.86
2019-04-28T12:11:21.194Z,39.66
2019-04-28T12:14:09.184Z,40.83
2019-04-28T12:16:50.437Z,37.82
2019-04-28T12:19:28.834Z,36.44
2019-04-28T12:21:59.102Z,36.61
2019-04-28T12:24:29.504Z,35.09
2019-04-28T12:26:59.878Z,35.49
2019-04-28T12:29:30.299Z,37.49
2019-04-28T12:32:01.640Z,36.38
2019-04-28T12:34:32.691Z,36.06
2019-04-28T12:37:02.962Z,35.50
2019-04-28T12:39:33.657Z,34.40
2019-04-28T12:42:04.584Z,34.92
2019-04-28T12:44:34.967Z,35.22
2019-04-28T12:47:05.488Z,35.40
2019-04-28T12:49:55.012Z,35.41
2019-04-28T12:52:26.584Z,36.06
2019-04-28T12:54:56.874Z,36.06
2019-04-28T12:57:27.279Z,35.03
2019-04-28T13:00:07.133Z,35.03
2019-04-28T13:02:59.985Z,35.07
2019-04-28T13:05:32.051Z,34.43
2019-04-28T13:08:03.447Z,34.90
2019-04-28T13:10:33.975Z,35.21
2019-04-28T13:13:04.316Z,35.50
2019-04-28T13:15:34.595Z,34.84
2019-04-28T13:18:05.510Z,34.84
2019-04-28T13:20:35.978Z,35.43
2019-04-28T13:23:06.332Z,34.27
2019-04-28T13:25:36.682Z,33.96
2019-04-28T13:28:08.224Z,34.94
2019-04-28T13:30:38.771Z,34.78
2019-04-28T13:33:09.060Z,34.68
2019-04-28T13:35:39.457Z,35.30
2019-04-28T13:38:10.015Z,35.26
2019-04-28T13:40:41.647Z,35.52
2019-04-28T13:43:11.924Z,34.72
2019-04-28T13:45:42.665Z,35.58
2019-04-28T13:48:13.411Z,34.12
2019-04-28T13:50:43.680Z,34.12
2019-04-28T13:53:14.469Z,33.22
2019-04-28T13:55:57.997Z,31.98
2019-04-28T13:58:36.732Z,32.80
2019-04-28T14:01:33.086Z,31.56
2019-04-28T14:04:25.090Z,30.78
2019-04-28T14:06:59.048Z,29.04
2019-04-28T14:09:29.821Z,27.79
2019-04-28T14:12:00.142Z,28.74
2019-04-28T14:14:30.943Z,28.28
2019-04-28T14:17:01.626Z,27.42
2019-04-28T14:19:33.001Z,27.44
2019-04-28T14:22:03.482Z,28.34
2019-04-28T14:24:34.014Z,26.76
2019-04-28T14:27:04.478Z,27.56
2019-04-28T14:29:35.884Z,27.36
2019-04-28T14:32:06.417Z,27.33
2019-04-28T14:34:36.724Z,26.15
2019-04-28T14:37:07.450Z,26.95
2019-04-28T14:39:37.794Z,27.97
2019-04-28T14:42:08.088Z,26.16
2019-04-28T14:44:38.491Z,25.40
2019-04-28T14:47:08.757Z,27.61
2019-04-28T14:49:39.104Z,26.05
2019-04-28T14:52:09.479Z,27.56
2019-04-28T14:54:39.803Z,26.78
2019-04-28T14:57:10.097Z,26.60
2019-04-28T14:59:40.923Z,26.66
2019-04-28T15:02:27.571Z,26.42
2019-04-28T15:05:15.442Z,24.63
2019-04-28T15:08:07.867Z,24.92
2019-04-28T15:10:48.390Z,24.81
2019-04-28T15:13:19.782Z,25.03
2019-04-28T15:15:50.095Z,24.46
2019-04-28T15:18:20.461Z,24.58
2019-04-28T15:20:51.140Z,25.51
2019-04-28T15:23:21.537Z,25.29
2019-04-28T15:25:51.805Z,26.47
2019-04-28T15:28:22.494Z,26.58
2019-04-28T15:30:53.255Z,25.01
2019-04-28T15:33:23.566Z,25.00
2019-04-28T15:35:54.347Z,25.66
2019-04-28T15:38:25.126Z,26.94
2019-04-28T15:40:55.446Z,26.58
2019-04-28T15:43:25.924Z,25.55
2019-04-28T15:45:56.238Z,26.43
2019-04-28T15:48:26.838Z,25.28
2019-04-28T15:50:57.504Z,22.32
2019-04-28T15:53:28.815Z,22.28
2019-04-28T15:56:10.624Z,21.96
2019-04-28T15:58:41.235Z,22.15
2019-04-28T16:01:11.550Z,21.34
2019-04-28T16:03:42.006Z,22.16
2019-04-28T16:06:12.693Z,22.53
2019-04-28T16:08:42.961Z,23.17
2019-04-28T16:11:13.412Z,23.46
2019-04-28T16:13:44.064Z,23.32
2019-04-28T16:16:14.777Z,23.62
2019-04-28T16:18:45.385Z,24.58
2019-04-28T16:21:15.871Z,24.99
2019-04-28T16:23:46.181Z,25.19
2019-04-28T16:26:16.677Z,26.93
2019-04-28T16:28:47.225Z,26.57
2019-04-28T16:31:17.579Z,27.06
2019-04-28T16:33:48.165Z,25.74
2019-04-28T16:36:18.544Z,25.25
2019-04-28T16:38:48.811Z,25.44
2019-04-28T16:41:46.465Z,25.08
2019-04-28T16:44:42.453Z,25.26
2019-04-28T16:47:12.758Z,25.14
2019-04-28T16:49:43.367Z,25.59
2019-04-28T16:52:13.830Z,26.61
2019-04-28T16:54:44.084Z,28.06
2019-04-28T16:57:29.254Z,31.81
2019-04-28T17:00:30.970Z,34.33
2019-04-28T17:03:01.279Z,34.33
2019-04-28T17:05:31.811Z,36.72
2019-04-28T17:08:02.285Z,38.54
2019-04-28T17:10:32.685Z,41.27
2019-04-28T17:13:03.116Z,42.13
2019-04-28T17:15:34.856Z,43.34
2019-04-28T17:18:05.248Z,44.51
2019-04-28T17:20:36.121Z,44.73
2019-04-28T17:23:06.428Z,45.06
2019-04-28T17:25:37.074Z,45.68
2019-04-28T17:28:11.019Z,45.67
2019-04-28T17:30:43.206Z,45.85
2019-04-28T17:33:14.886Z,46.55
2019-04-28T17:35:45.619Z,46.72
2019-04-28T17:38:15.925Z,47.17
2019-04-28T17:40:46.201Z,48.81
2019-04-28T17:43:16.975Z,49.71
2019-04-28T17:45:48.443Z,50.42
2019-04-28T17:48:26.921Z,49.59
2019-04-28T17:50:57.292Z,50.58
2019-04-28T17:53:27.626Z,51.41
2019-04-28T17:55:58.028Z,51.82
2019-04-28T17:58:29.242Z,52.09
2019-04-28T18:01:24.304Z,51.70
2019-04-28T18:04:13.032Z,51.52
2019-04-28T18:06:47.122Z,51.74
2019-04-28T18:09:19.079Z,51.23
2019-04-28T18:11:49.899Z,51.20
2019-04-28T18:14:21.598Z,50.86
2019-04-28T18:17:16.596Z,51.56
2019-04-28T18:19:47.315Z,51.77
2019-04-28T18:22:17.697Z,51.80
2019-04-28T18:24:48.087Z,52.24
2019-04-28T18:27:18.640Z,52.53
2019-04-28T18:29:48.999Z,54.10
2019-04-28T18:32:30.968Z,54.26
2019-04-28T18:35:13.256Z,54.41
2019-04-28T18:38:02.473Z,55.42
2019-04-28T18:40:55.022Z,55.38
2019-04-28T18:43:47.345Z,56.89
2019-04-28T18:46:23.346Z,57.43
2019-04-28T18:48:53.864Z,58.02
2019-04-28T18:51:24.532Z,58.13
2019-04-28T18:53:54.800Z,58.30
2019-04-28T18:56:25.194Z,58.34
2019-04-28T18:58:55.724Z,58.44
2019-04-28T19:01:45.466Z,58.00
2019-04-28T19:04:16.161Z,57.97
2019-04-28T19:06:46.481Z,58.17
2019-04-28T19:09:39.031Z,58.07
2019-04-28T19:12:25.858Z,58.14
2019-04-28T19:15:09.962Z,56.69
2019-04-28T19:17:46.309Z,57.69
2019-04-28T19:20:16.791Z,52.36
2019-04-28T19:22:47.898Z,55.80
2019-04-28T19:25:18.160Z,56.91
2019-04-28T19:27:48.949Z,56.28
2019-04-28T19:30:19.389Z,56.25
2019-04-28T19:32:50.225Z,56.67
2019-04-28T19:35:20.490Z,57.21
2019-04-28T19:37:50.883Z,57.88
2019-04-28T19:40:21.463Z,57.58
2019-04-28T19:42:51.856Z,58.66
2019-04-28T19:45:22.494Z,58.97
2019-04-28T19:47:53.198Z,59.56
2019-04-28T19:50:23.519Z,59.74
2019-04-28T19:52:56.387Z,60.09
2019-04-28T19:55:30.908Z,61.14
2019-04-28T19:58:15.830Z,61.52
2019-04-28T20:00:53.070Z,61.72
2019-04-28T20:03:23.825Z,62.35
2019-04-28T20:05:54.100Z,62.17
2019-04-28T20:08:24.785Z,61.84
2019-04-28T20:10:55.326Z,61.73
2019-04-28T20:13:25.766Z,61.75
2019-04-28T20:15:56.431Z,62.07
2019-04-28T20:18:29.470Z,62.41
2019-04-28T20:20:59.029Z,62.20
2019-04-28T20:23:29.510Z,62.13
2019-04-28T20:26:00.196Z,62.05
2019-04-28T20:28:30.498Z,61.85
2019-04-28T20:31:01.053Z,61.05
2019-04-28T20:33:31.912Z,61.94
2019-04-28T20:36:07.690Z,63.08
2019-04-28T20:38:38.507Z,63.84
2019-04-28T20:41:18.476Z,63.25
2019-04-28T20:43:49.193Z,63.20
2019-04-28T20:46:19.792Z,63.88
2019-04-28T20:48:50.286Z,64.06
2019-04-28T20:51:20.751Z,63.86
2019-04-28T20:53:51.519Z,63.54
2019-04-28T20:56:21.894Z,63.90
2019-04-28T20:58:52.220Z,64.15
2019-04-28T21:01:22.878Z,64.14
2019-04-28T21:03:53.263Z,64.19
2019-04-28T21:06:23.535Z,64.53
2019-04-28T21:08:54.188Z,63.64
2019-04-28T21:11:24.643Z,63.45
2019-04-28T21:13:54.967Z,63.87
2019-04-28T21:16:25.737Z,65.31
2019-04-28T21:18:56.511Z,66.65
2019-04-28T21:21:26.766Z,67.21
2019-04-28T21:23:58.372Z,67.10
2019-04-28T21:26:29.009Z,67.59
2019-04-28T21:28:59.321Z,67.73
2019-04-28T21:31:32.644Z,67.90
2019-04-28T21:34:02.166Z,67.29
2019-04-28T21:36:32.442Z,67.42
2019-04-28T21:39:02.800Z,67.96
2019-04-28T21:41:34.881Z,67.62
2019-04-28T21:44:19.586Z,67.83
2019-04-28T21:46:54.862Z,67.89
2019-04-28T21:49:43.246Z,67.98
2019-04-28T21:52:13.559Z,67.37
2019-04-28T21:54:43.979Z,67.83
2019-04-28T21:57:14.245Z,68.16
2019-04-28T21:59:44.549Z,68.04
2019-04-28T22:02:15.217Z,68.19
2019-04-28T22:04:47.148Z,67.46
2019-04-28T22:07:18.806Z,67.49
2019-04-28T22:09:49.603Z,67.78
2019-04-28T22:12:20.043Z,67.52
2019-04-28T22:14:50.681Z,67.65
2019-04-28T22:17:20.956Z,68.42
2019-04-28T22:19:51.475Z,68.65
2019-04-28T22:22:22.114Z,68.85
2019-04-28T22:24:58.931Z,69.29
2019-04-28T22:27:35.822Z,69.79
2019-04-28T22:30:07.974Z,69.56
2019-04-28T22:32:38.424Z,69.87
2019-04-28T22:35:09.505Z,69.82
2019-04-28T22:37:40.177Z,69.51
2019-04-28T22:40:11.220Z,69.43
2019-04-28T22:42:41.488Z,70.17
2019-04-28T22:45:12.777Z,70.59
2019-04-28T22:47:43.256Z,70.76
2019-04-28T22:50:51.644Z,70.52
2019-04-28T22:53:26.482Z,70.04
2019-04-28T22:56:08.010Z,70.28
2019-04-28T22:58:49.931Z,70.93
2019-04-28T23:01:24.318Z,70.35
2019-04-28T23:04:01.246Z,71.28
2019-04-28T23:06:31.992Z,71.43
2019-04-28T23:09:02.690Z,71.30
2019-04-28T23:11:34.917Z,71.92
2019-04-28T23:14:05.398Z,72.30
2019-04-28T23:16:36.146Z,71.84
2019-04-28T23:19:08.495Z,71.15
2019-04-28T23:22:16.160Z,71.95
2019-04-28T23:24:46.415Z,72.06
2019-04-28T23:27:17.195Z,71.63
2019-04-28T23:29:47.798Z,72.31
2019-04-28T23:32:18.259Z,72.15
2019-04-28T23:34:48.757Z,71.63
2019-04-28T23:37:19.421Z,72.12
2019-04-28T23:39:49.706Z,72.69
2019-04-28T23:42:44.975Z,72.45
2019-04-28T23:45:15.660Z,72.23
2019-04-28T23:47:45.984Z,72.40
2019-04-28T23:50:18.197Z,71.66
2019-04-28T23:53:07.840Z,70.92
2019-04-28T23:55:38.266Z,70.39
2019-04-28T23:58:08.920Z,69.88
